Portada
METAR-TAF:

METAR-TAF

Aeroports :

Dharamsala, Índia

latitud: 32-09-54N, longitud: 76-15-48E, altitud: 770 m

Observació

L'informe es va fer fa 1 hora i 0 minuts, a les 05:00 UTC
Vent 2 kt del Oest
Temperatura 23°C
Humitat 53%
Pressió 1020 hPa
Visibilitat: 6000 m
Escasses núvols a una alçada de 3500 ft

METAR: VIGG 210500Z 27002KT 6000 FEW035 23/13 Q1020

Hora: 11:30 (06:00 UTC)

Pronòstic

L'informe es va fer fa 7 hores i 0 minuts, a les 23:00 UTC
Pronòstic vàlid del 21 a les 00 UTC al 21 a les 09 UTC
Vent kt del Nord
Visibilitat: 2500 m
Escasses núvols a una alçada de 10000 ft
boirina
Evolucionant progressivament
l' 21 a les 05 UTC al 21 a les 06 UTC
Vent 5 kt del Sud-Est
Visibilitat: 5000 m
Núvols disperses a una alçada de 3500 ft
calitja

TAF: VIGG 202300Z 2100/2109 00000KT 2500 BR FEW100 BECMG 2105/2106 14005KT 5000 HZ SCT035

Observacions i pronòstics meteorològics de més de 4000 aeroports (METAR i TAF).

Les estacions disponibles són els punts grocs i vermells al mapa.

Posi el ratolí al punt desitjat per veure el nom de l'estació.

Feu clic per veure les observacions i els pronòstics meteorològics.

Per canviar el mapa: feu clic els botons verds amb una creu de color negre per apropar; al botó verd amb un guió per allunyar la imatge; o en les fletxes verdes per a mapes adjacents.


METAR-TAF: